sensor_id;sensor_type;location;lat;lon;timestamp;temperature;humidity
22114;DHT22;11223;49.968;9.062;2023-01-15T00:01:33;9.60;99.90
22114;DHT22;11223;49.968;9.062;2023-01-15T00:03:59;9.50;99.90
22114;DHT22;11223;49.968;9.062;2023-01-15T00:06:26;9.60;99.90
22114;DHT22;11223;49.968;9.062;2023-01-15T00:08:52;9.60;99.90
22114;DHT22;11223;49.968;9.062;2023-01-15T00:11:18;9.60;99.90
22114;DHT22;11223;49.968;9.062;2023-01-15T00:13:44;9.60;99.90
22114;DHT22;11223;49.968;9.062;2023-01-15T00:16:13;9.60;99.90
22114;DHT22;11223;49.968;9.062;2023-01-15T00:18:39;9.60;99.90
22114;DHT22;11223;49.968;9.062;2023-01-15T00:21:08;9.70;99.90
22114;DHT22;11223;49.968;9.062;2023-01-15T00:23:35;9.70;99.90
22114;DHT22;11223;49.968;9.062;2023-01-15T00:26:20;9.60;99.90
22114;DHT22;11223;49.968;9.062;2023-01-15T00:29:05;9.60;99.90
22114;DHT22;11223;49.968;9.062;2023-01-15T00:31:33;9.60;99.90
22114;DHT22;11223;49.968;9.062;2023-01-15T00:34:00;9.70;99.90
22114;DHT22;11223;49.968;9.062;2023-01-15T00:36:25;9.60;99.90
22114;DHT22;11223;49.968;9.062;2023-01-15T00:38:51;9.60;99.90
22114;DHT22;11223;49.968;9.062;2023-01-15T00:41:17;9.60;99.90
22114;DHT22;11223;49.968;9.062;2023-01-15T00:43:43;9.60;99.90
22114;DHT22;11223;49.968;9.062;2023-01-15T00:46:09;9.60;99.90
22114;DHT22;11223;49.968;9.062;2023-01-15T00:48:35;9.60;99.90
22114;DHT22;11223;49.968;9.062;2023-01-15T00:51:02;9.60;99.90
22114;DHT22;11223;49.968;9.062;2023-01-15T00:53:28;9.60;99.90
22114;DHT22;11223;49.968;9.062;2023-01-15T00:55:54;9.60;99.90
22114;DHT22;11223;49.968;9.062;2023-01-15T00:58:19;9.60;99.90
22114;DHT22;11223;49.968;9.062;2023-01-15T01:00:45;9.70;99.90
22114;DHT22;11223;49.968;9.062;2023-01-15T01:03:11;9.60;99.90
22114;DHT22;11223;49.968;9.062;2023-01-15T01:05:36;9.70;99.90
22114;DHT22;11223;49.968;9.062;2023-01-15T01:08:02;9.70;99.90
22114;DHT22;11223;49.968;9.062;2023-01-15T01:10:28;9.70;99.90
22114;DHT22;11223;49.968;9.062;2023-01-15T01:12:53;9.60;99.90
22114;DHT22;11223;49.968;9.062;2023-01-15T01:15:21;9.70;99.90
22114;DHT22;11223;49.968;9.062;2023-01-15T01:17:46;9.60;99.90
22114;DHT22;11223;49.968;9.062;2023-01-15T01:20:14;9.70;99.90
22114;DHT22;11223;49.968;9.062;2023-01-15T01:22:40;9.70;99.90
22114;DHT22;11223;49.968;9.062;2023-01-15T01:25:07;9.70;99.90
22114;DHT22;11223;49.968;9.062;2023-01-15T01:27:33;9.70;99.90
22114;DHT22;11223;49.968;9.062;2023-01-15T01:29:58;9.70;99.90
22114;DHT22;11223;49.968;9.062;2023-01-15T01:32:24;9.70;99.90
22114;DHT22;11223;49.968;9.062;2023-01-15T01:34:50;9.70;99.90
22114;DHT22;11223;49.968;9.062;2023-01-15T01:37:15;9.80;99.90
22114;DHT22;11223;49.968;9.062;2023-01-15T01:39:41;9.80;99.90
22114;DHT22;11223;49.968;9.062;2023-01-15T01:42:14;9.70;99.90
22114;DHT22;11223;49.968;9.062;2023-01-15T01:47:20;9.80;99.90
22114;DHT22;11223;49.968;9.062;2023-01-15T01:50:04;9.80;99.90
22114;DHT22;11223;49.968;9.062;2023-01-15T01:52:56;9.80;99.90
22114;DHT22;11223;49.968;9.062;2023-01-15T01:55:25;9.80;99.90
22114;DHT22;11223;49.968;9.062;2023-01-15T01:57:55;9.70;99.90
22114;DHT22;11223;49.968;9.062;2023-01-15T02:00:23;9.80;99.90
22114;DHT22;11223;49.968;9.062;2023-01-15T02:02:50;9.70;99.90
22114;DHT22;11223;49.968;9.062;2023-01-15T02:05:38;9.70;99.90
22114;DHT22;11223;49.968;9.062;2023-01-15T02:08:05;9.80;99.90
22114;DHT22;11223;49.968;9.062;2023-01-15T02:10:32;9.70;99.90
22114;DHT22;11223;49.968;9.062;2023-01-15T02:13:13;9.70;99.90
22114;DHT22;11223;49.968;9.062;2023-01-15T02:15:46;9.70;99.90
22114;DHT22;11223;49.968;9.062;2023-01-15T02:18:37;9.70;99.90
22114;DHT22;11223;49.968;9.062;2023-01-15T02:21:12;9.70;99.90
22114;DHT22;11223;49.968;9.062;2023-01-15T02:24:41;9.60;99.90
22114;DHT22;11223;49.968;9.062;2023-01-15T02:27:18;9.70;99.90
22114;DHT22;11223;49.968;9.062;2023-01-15T02:30:09;9.70;99.90
22114;DHT22;11223;49.968;9.062;2023-01-15T02:32:51;9.60;99.90
22114;DHT22;11223;49.968;9.062;2023-01-15T02:35:21;9.60;99.90
22114;DHT22;11223;49.968;9.062;2023-01-15T02:37:54;9.60;99.90
22114;DHT22;11223;49.968;9.062;2023-01-15T02:40:22;9.60;99.90
22114;DHT22;11223;49.968;9.062;2023-01-15T02:42:49;9.60;99.90
22114;DHT22;11223;49.968;9.062;2023-01-15T02:45:18;9.60;99.90
22114;DHT22;11223;49.968;9.062;2023-01-15T02:47:51;9.60;99.90
22114;DHT22;11223;49.968;9.062;2023-01-15T02:50:21;9.60;99.90
22114;DHT22;11223;49.968;9.062;2023-01-15T02:52:52;9.60;99.90
22114;DHT22;11223;49.968;9.062;2023-01-15T02:55:23;9.50;99.90
22114;DHT22;11223;49.968;9.062;2023-01-15T02:57:53;9.40;99.90
22114;DHT22;11223;49.968;9.062;2023-01-15T03:00:20;9.30;99.90
22114;DHT22;11223;49.968;9.062;2023-01-15T03:02:53;9.20;99.90
22114;DHT22;11223;49.968;9.062;2023-01-15T03:05:23;9.20;99.90
22114;DHT22;11223;49.968;9.062;2023-01-15T03:07:53;9.20;99.90
22114;DHT22;11223;49.968;9.062;2023-01-15T03:10:31;9.10;99.90
22114;DHT22;11223;49.968;9.062;2023-01-15T03:13:00;9.10;99.90
22114;DHT22;11223;49.968;9.062;2023-01-15T03:18:21;9.00;99.90
22114;DHT22;11223;49.968;9.062;2023-01-15T03:20:51;8.90;99.90
22114;DHT22;11223;49.968;9.062;2023-01-15T03:23:22;8.90;99.90
22114;DHT22;11223;49.968;9.062;2023-01-15T03:25:49;8.90;99.90
22114;DHT22;11223;49.968;9.062;2023-01-15T03:28:20;8.90;99.90
22114;DHT22;11223;49.968;9.062;2023-01-15T03:30:47;8.90;99.90
22114;DHT22;11223;49.968;9.062;2023-01-15T03:33:13;8.80;99.90
22114;DHT22;11223;49.968;9.062;2023-01-15T03:38:10;8.70;99.90
22114;DHT22;11223;49.968;9.062;2023-01-15T03:40:40;8.60;99.90
22114;DHT22;11223;49.968;9.062;2023-01-15T03:43:12;8.40;99.90
22114;DHT22;11223;49.968;9.062;2023-01-15T03:46:02;8.40;99.90
22114;DHT22;11223;49.968;9.062;2023-01-15T03:48:41;8.30;99.90
22114;DHT22;11223;49.968;9.062;2023-01-15T03:51:27;8.10;99.90
22114;DHT22;11223;49.968;9.062;2023-01-15T03:53:57;8.00;99.90
22114;DHT22;11223;49.968;9.062;2023-01-15T03:56:34;8.00;99.90
22114;DHT22;11223;49.968;9.062;2023-01-15T03:59:20;7.90;99.90
22114;DHT22;11223;49.968;9.062;2023-01-15T04:01:48;7.80;99.90
22114;DHT22;11223;49.968;9.062;2023-01-15T04:04:15;7.80;99.90
22114;DHT22;11223;49.968;9.062;2023-01-15T04:06:42;7.80;99.90
22114;DHT22;11223;49.968;9.062;2023-01-15T04:09:10;7.70;99.90
22114;DHT22;11223;49.968;9.062;2023-01-15T04:11:37;7.70;99.90
22114;DHT22;11223;49.968;9.062;2023-01-15T04:14:03;7.60;99.90
22114;DHT22;11223;49.968;9.062;2023-01-15T04:16:30;7.70;99.90
22114;DHT22;11223;49.968;9.062;2023-01-15T04:18:56;7.60;99.90
22114;DHT22;11223;49.968;9.062;2023-01-15T04:21:22;7.50;99.90
22114;DHT22;11223;49.968;9.062;2023-01-15T04:23:48;7.50;99.90
22114;DHT22;11223;49.968;9.062;2023-01-15T04:26:14;7.40;99.90
22114;DHT22;11223;49.968;9.062;2023-01-15T04:28:40;7.50;99.90
22114;DHT22;11223;49.968;9.062;2023-01-15T04:31:06;7.40;99.90
22114;DHT22;11223;49.968;9.062;2023-01-15T04:33:32;7.30;99.90
22114;DHT22;11223;49.968;9.062;2023-01-15T04:35:59;7.30;99.90
22114;DHT22;11223;49.968;9.062;2023-01-15T04:38:25;7.20;99.90
22114;DHT22;11223;49.968;9.062;2023-01-15T04:40:51;7.20;99.90
22114;DHT22;11223;49.968;9.062;2023-01-15T04:43:35;7.10;99.90
22114;DHT22;11223;49.968;9.062;2023-01-15T04:46:21;7.10;99.90
22114;DHT22;11223;49.968;9.062;2023-01-15T04:48:46;7.10;99.90
22114;DHT22;11223;49.968;9.062;2023-01-15T04:51:12;7.00;99.90
22114;DHT22;11223;49.968;9.062;2023-01-15T04:53:38;6.90;99.90
22114;DHT22;11223;49.968;9.062;2023-01-15T04:56:04;6.80;99.90
22114;DHT22;11223;49.968;9.062;2023-01-15T04:58:30;6.70;99.90
22114;DHT22;11223;49.968;9.062;2023-01-15T05:00:56;6.60;99.90
22114;DHT22;11223;49.968;9.062;2023-01-15T05:03:25;6.50;99.90
22114;DHT22;11223;49.968;9.062;2023-01-15T05:05:51;6.40;99.90
22114;DHT22;11223;49.968;9.062;2023-01-15T05:08:16;6.40;99.90
22114;DHT22;11223;49.968;9.062;2023-01-15T05:10:42;6.30;99.90
22114;DHT22;11223;49.968;9.062;2023-01-15T05:13:08;6.20;99.90
22114;DHT22;11223;49.968;9.062;2023-01-15T05:15:33;6.20;99.90
22114;DHT22;11223;49.968;9.062;2023-01-15T05:17:59;6.10;99.90
22114;DHT22;11223;49.968;9.062;2023-01-15T05:20:25;6.10;99.90
22114;DHT22;11223;49.968;9.062;2023-01-15T05:22:50;6.00;99.90
22114;DHT22;11223;49.968;9.062;2023-01-15T05:25:16;6.00;99.90
22114;DHT22;11223;49.968;9.062;2023-01-15T05:27:42;5.90;99.90
22114;DHT22;11223;49.968;9.062;2023-01-15T05:30:09;5.90;99.90
22114;DHT22;11223;49.968;9.062;2023-01-15T05:32:35;5.90;99.90
22114;DHT22;11223;49.968;9.062;2023-01-15T05:35:00;5.80;99.90
22114;DHT22;11223;49.968;9.062;2023-01-15T05:37:29;5.80;99.90
22114;DHT22;11223;49.968;9.062;2023-01-15T05:39:54;5.80;99.90
22114;DHT22;11223;49.968;9.062;2023-01-15T05:42:20;5.80;99.90
22114;DHT22;11223;49.968;9.062;2023-01-15T05:44:46;5.80;99.90
22114;DHT22;11223;49.968;9.062;2023-01-15T05:47:11;5.70;99.90
22114;DHT22;11223;49.968;9.062;2023-01-15T05:49:38;5.70;99.90
22114;DHT22;11223;49.968;9.062;2023-01-15T05:52:04;5.70;99.90
22114;DHT22;11223;49.968;9.062;2023-01-15T05:54:32;5.70;99.90
22114;DHT22;11223;49.968;9.062;2023-01-15T05:56:58;5.70;99.90
22114;DHT22;11223;49.968;9.062;2023-01-15T05:59:26;5.70;99.90
22114;DHT22;11223;49.968;9.062;2023-01-15T06:01:52;5.60;99.90
22114;DHT22;11223;49.968;9.062;2023-01-15T06:04:18;5.60;99.90
22114;DHT22;11223;49.968;9.062;2023-01-15T06:06:49;5.60;99.90
22114;DHT22;11223;49.968;9.062;2023-01-15T06:09:15;5.60;99.90
22114;DHT22;11223;49.968;9.062;2023-01-15T06:11:41;5.50;99.90
22114;DHT22;11223;49.968;9.062;2023-01-15T06:14:07;5.50;99.90
22114;DHT22;11223;49.968;9.062;2023-01-15T06:16:33;5.50;99.90
22114;DHT22;11223;49.968;9.062;2023-01-15T06:19:03;5.50;99.90
22114;DHT22;11223;49.968;9.062;2023-01-15T06:21:30;5.50;99.90
22114;DHT22;11223;49.968;9.062;2023-01-15T06:23:56;5.40;99.90
22114;DHT22;11223;49.968;9.062;2023-01-15T06:26:22;5.50;99.90
22114;DHT22;11223;49.968;9.062;2023-01-15T06:28:48;5.40;99.90
22114;DHT22;11223;49.968;9.062;2023-01-15T06:31:16;5.40;99.90
22114;DHT22;11223;49.968;9.062;2023-01-15T06:33:42;5.40;99.90
22114;DHT22;11223;49.968;9.062;2023-01-15T06:36:14;5.40;99.90
22114;DHT22;11223;49.968;9.062;2023-01-15T06:38:40;5.50;99.90
22114;DHT22;11223;49.968;9.062;2023-01-15T06:41:09;5.40;99.90
22114;DHT22;11223;49.968;9.062;2023-01-15T06:43:54;5.40;99.90
22114;DHT22;11223;49.968;9.062;2023-01-15T06:46:44;5.40;99.90
22114;DHT22;11223;49.968;9.062;2023-01-15T06:49:29;5.40;99.90
22114;DHT22;11223;49.968;9.062;2023-01-15T06:51:55;5.40;99.90
22114;DHT22;11223;49.968;9.062;2023-01-15T06:54:21;5.40;99.90
22114;DHT22;11223;49.968;9.062;2023-01-15T06:56:47;5.40;99.90
22114;DHT22;11223;49.968;9.062;2023-01-15T06:59:12;5.40;99.90
22114;DHT22;11223;49.968;9.062;2023-01-15T07:01:38;5.40;99.90
22114;DHT22;11223;49.968;9.062;2023-01-15T07:04:04;5.40;99.90
22114;DHT22;11223;49.968;9.062;2023-01-15T07:06:30;5.40;99.90
22114;DHT22;11223;49.968;9.062;2023-01-15T07:08:56;5.40;99.90
22114;DHT22;11223;49.968;9.062;2023-01-15T07:11:21;5.40;99.90
22114;DHT22;11223;49.968;9.062;2023-01-15T07:13:47;5.30;99.90
22114;DHT22;11223;49.968;9.062;2023-01-15T07:16:13;5.30;99.90
22114;DHT22;11223;49.968;9.062;2023-01-15T07:18:54;5.40;99.90
22114;DHT22;11223;49.968;9.062;2023-01-15T07:21:21;5.30;99.90
22114;DHT22;11223;49.968;9.062;2023-01-15T07:23:48;5.30;99.90
22114;DHT22;11223;49.968;9.062;2023-01-15T07:26:14;5.30;99.90
22114;DHT22;11223;49.968;9.062;2023-01-15T07:28:39;5.30;99.90
22114;DHT22;11223;49.968;9.062;2023-01-15T07:31:05;5.20;99.90
22114;DHT22;11223;49.968;9.062;2023-01-15T07:33:31;5.30;99.90
22114;DHT22;11223;49.968;9.062;2023-01-15T07:35:57;5.30;99.90
22114;DHT22;11223;49.968;9.062;2023-01-15T07:38:26;5.30;99.90
22114;DHT22;11223;49.968;9.062;2023-01-15T07:40:55;5.30;99.90
22114;DHT22;11223;49.968;9.062;2023-01-15T07:43:39;5.30;99.90
22114;DHT22;11223;49.968;9.062;2023-01-15T07:46:23;5.30;99.90
22114;DHT22;11223;49.968;9.062;2023-01-15T07:49:10;5.30;99.90
22114;DHT22;11223;49.968;9.062;2023-01-15T07:51:55;5.30;99.90
22114;DHT22;11223;49.968;9.062;2023-01-15T07:54:20;5.20;99.90
22114;DHT22;11223;49.968;9.062;2023-01-15T07:56:46;5.20;99.90
22114;DHT22;11223;49.968;9.062;2023-01-15T07:59:12;5.20;99.90
22114;DHT22;11223;49.968;9.062;2023-01-15T08:01:38;5.20;99.90
22114;DHT22;11223;49.968;9.062;2023-01-15T08:04:03;5.20;99.90
22114;DHT22;11223;49.968;9.062;2023-01-15T08:06:29;5.30;99.90
22114;DHT22;11223;49.968;9.062;2023-01-15T08:08:54;5.20;99.90
22114;DHT22;11223;49.968;9.062;2023-01-15T08:11:20;5.30;99.90
22114;DHT22;11223;49.968;9.062;2023-01-15T08:14:04;5.30;99.90
22114;DHT22;11223;49.968;9.062;2023-01-15T08:16:48;5.30;99.90
22114;DHT22;11223;49.968;9.062;2023-01-15T08:19:14;5.30;99.90
22114;DHT22;11223;49.968;9.062;2023-01-15T08:21:40;5.30;99.90
22114;DHT22;11223;49.968;9.062;2023-01-15T08:24:06;5.30;99.90
22114;DHT22;11223;49.968;9.062;2023-01-15T08:26:32;5.30;99.90
22114;DHT22;11223;49.968;9.062;2023-01-15T08:28:57;5.30;99.90
22114;DHT22;11223;49.968;9.062;2023-01-15T08:31:23;5.30;99.90
22114;DHT22;11223;49.968;9.062;2023-01-15T08:33:49;5.30;99.90
22114;DHT22;11223;49.968;9.062;2023-01-15T08:36:15;5.30;99.90
22114;DHT22;11223;49.968;9.062;2023-01-15T08:38:42;5.30;99.90
22114;DHT22;11223;49.968;9.062;2023-01-15T08:41:08;5.40;99.90
22114;DHT22;11223;49.968;9.062;2023-01-15T08:43:34;5.40;99.90
22114;DHT22;11223;49.968;9.062;2023-01-15T08:46:01;5.40;99.90
22114;DHT22;11223;49.968;9.062;2023-01-15T08:48:29;5.30;99.90
22114;DHT22;11223;49.968;9.062;2023-01-15T08:50:55;5.30;99.90
22114;DHT22;11223;49.968;9.062;2023-01-15T08:53:21;5.40;99.90
22114;DHT22;11223;49.968;9.062;2023-01-15T08:55:48;5.40;99.90
22114;DHT22;11223;49.968;9.062;2023-01-15T08:58:14;5.40;99.90
22114;DHT22;11223;49.968;9.062;2023-01-15T09:00:41;5.40;99.90
22114;DHT22;11223;49.968;9.062;2023-01-15T09:03:06;5.40;99.90
22114;DHT22;11223;49.968;9.062;2023-01-15T09:05:32;5.50;99.90
22114;DHT22;11223;49.968;9.062;2023-01-15T09:07:58;5.40;99.90
22114;DHT22;11223;49.968;9.062;2023-01-15T09:10:24;5.40;99.90
22114;DHT22;11223;49.968;9.062;2023-01-15T09:12:49;5.40;99.90
22114;DHT22;11223;49.968;9.062;2023-01-15T09:15:16;5.40;99.90
22114;DHT22;11223;49.968;9.062;2023-01-15T09:17:42;5.40;99.90
22114;DHT22;11223;49.968;9.062;2023-01-15T09:20:10;5.40;99.90
22114;DHT22;11223;49.968;9.062;2023-01-15T09:22:36;5.30;99.90
22114;DHT22;11223;49.968;9.062;2023-01-15T09:25:02;5.30;99.90
22114;DHT22;11223;49.968;9.062;2023-01-15T09:27:28;5.30;99.90
22114;DHT22;11223;49.968;9.062;2023-01-15T09:29:54;5.30;99.90
22114;DHT22;11223;49.968;9.062;2023-01-15T09:32:20;5.30;99.90
22114;DHT22;11223;49.968;9.062;2023-01-15T09:34:46;5.30;99.90
22114;DHT22;11223;49.968;9.062;2023-01-15T09:37:11;5.30;99.90
22114;DHT22;11223;49.968;9.062;2023-01-15T09:39:37;5.30;99.90
22114;DHT22;11223;49.968;9.062;2023-01-15T09:42:28;5.30;99.90
22114;DHT22;11223;49.968;9.062;2023-01-15T09:45:17;5.30;99.90
22114;DHT22;11223;49.968;9.062;2023-01-15T09:47:58;5.40;99.90
22114;DHT22;11223;49.968;9.062;2023-01-15T09:50:48;5.40;99.90
22114;DHT22;11223;49.968;9.062;2023-01-15T09:53:36;5.40;99.90
22114;DHT22;11223;49.968;9.062;2023-01-15T09:56:13;5.40;99.90
22114;DHT22;11223;49.968;9.062;2023-01-15T09:58:40;5.50;99.90
22114;DHT22;11223;49.968;9.062;2023-01-15T10:01:14;5.50;99.90
22114;DHT22;11223;49.968;9.062;2023-01-15T10:03:47;5.50;99.90
22114;DHT22;11223;49.968;9.062;2023-01-15T10:06:26;5.50;99.90
22114;DHT22;11223;49.968;9.062;2023-01-15T10:12:17;5.50;99.90
22114;DHT22;11223;49.968;9.062;2023-01-15T10:17:58;5.60;99.90
22114;DHT22;11223;49.968;9.062;2023-01-15T10:23:26;5.60;99.90
22114;DHT22;11223;49.968;9.062;2023-01-15T10:31:37;5.70;99.90
22114;DHT22;11223;49.968;9.062;2023-01-15T10:37:05;5.80;99.90
22114;DHT22;11223;49.968;9.062;2023-01-15T10:39:45;5.80;99.90
22114;DHT22;11223;49.968;9.062;2023-01-15T10:45:02;5.90;99.90
22114;DHT22;11223;49.968;9.062;2023-01-15T10:47:34;5.90;99.90
22114;DHT22;11223;49.968;9.062;2023-01-15T10:50:05;5.90;99.90
22114;DHT22;11223;49.968;9.062;2023-01-15T10:52:39;5.90;99.90
22114;DHT22;11223;49.968;9.062;2023-01-15T11:00:34;5.90;99.90
22114;DHT22;11223;49.968;9.062;2023-01-15T11:03:04;5.90;99.90
22114;DHT22;11223;49.968;9.062;2023-01-15T11:05:34;5.90;99.90
22114;DHT22;11223;49.968;9.062;2023-01-15T11:08:03;6.00;99.90
22114;DHT22;11223;49.968;9.062;2023-01-15T11:10:33;6.00;99.90
22114;DHT22;11223;49.968;9.062;2023-01-15T11:13:11;6.00;99.90
22114;DHT22;11223;49.968;9.062;2023-01-15T11:15:59;6.00;99.90
22114;DHT22;11223;49.968;9.062;2023-01-15T11:18:44;6.00;99.90
22114;DHT22;11223;49.968;9.062;2023-01-15T11:21:29;6.00;99.90
22114;DHT22;11223;49.968;9.062;2023-01-15T11:23:57;6.00;99.90
22114;DHT22;11223;49.968;9.062;2023-01-15T11:26:31;6.00;99.90
22114;DHT22;11223;49.968;9.062;2023-01-15T11:28:59;5.90;99.90
22114;DHT22;11223;49.968;9.062;2023-01-15T11:34:55;5.90;99.90
22114;DHT22;11223;49.968;9.062;2023-01-15T11:37:21;5.90;99.90
22114;DHT22;11223;49.968;9.062;2023-01-15T11:40:01;5.80;99.90
22114;DHT22;11223;49.968;9.062;2023-01-15T11:42:32;5.80;99.90
22114;DHT22;11223;49.968;9.062;2023-01-15T11:45:18;5.70;99.90
22114;DHT22;11223;49.968;9.062;2023-01-15T11:48:17;5.70;99.90
22114;DHT22;11223;49.968;9.062;2023-01-15T11:51:13;5.60;99.90
22114;DHT22;11223;49.968;9.062;2023-01-15T11:53:46;5.60;99.90
22114;DHT22;11223;49.968;9.062;2023-01-15T11:56:22;5.60;99.90
22114;DHT22;11223;49.968;9.062;2023-01-15T11:58:51;5.60;99.90
22114;DHT22;11223;49.968;9.062;2023-01-15T12:04:02;5.70;99.90
22114;DHT22;11223;49.968;9.062;2023-01-15T12:06:30;5.70;99.90
22114;DHT22;11223;49.968;9.062;2023-01-15T12:09:24;5.80;99.90
22114;DHT22;11223;49.968;9.062;2023-01-15T12:12:14;5.80;99.90
22114;DHT22;11223;49.968;9.062;2023-01-15T12:15:05;5.80;99.90
22114;DHT22;11223;49.968;9.062;2023-01-15T12:21:01;5.80;99.90
22114;DHT22;11223;49.968;9.062;2023-01-15T12:26:19;5.70;99.90
22114;DHT22;11223;49.968;9.062;2023-01-15T12:28:56;5.70;99.90
22114;DHT22;11223;49.968;9.062;2023-01-15T12:31:36;5.60;99.90
22114;DHT22;11223;49.968;9.062;2023-01-15T12:34:11;5.60;99.90
22114;DHT22;11223;49.968;9.062;2023-01-15T12:36:50;5.70;99.90
22114;DHT22;11223;49.968;9.062;2023-01-15T12:39:28;5.60;99.90
22114;DHT22;11223;49.968;9.062;2023-01-15T12:42:01;5.50;99.90
22114;DHT22;11223;49.968;9.062;2023-01-15T12:44:50;5.50;99.90
22114;DHT22;11223;49.968;9.062;2023-01-15T12:48:03;5.40;99.90
22114;DHT22;11223;49.968;9.062;2023-01-15T12:50:41;5.40;99.90
22114;DHT22;11223;49.968;9.062;2023-01-15T12:55:58;5.40;99.90
22114;DHT22;11223;49.968;9.062;2023-01-15T12:58:36;5.30;99.90
22114;DHT22;11223;49.968;9.062;2023-01-15T13:04:02;5.30;99.90
22114;DHT22;11223;49.968;9.062;2023-01-15T13:06:30;5.20;99.90
22114;DHT22;11223;49.968;9.062;2023-01-15T13:12:20;5.10;99.90
22114;DHT22;11223;49.968;9.062;2023-01-15T13:14:45;5.10;99.90
22114;DHT22;11223;49.968;9.062;2023-01-15T13:17:26;5.10;99.90
22114;DHT22;11223;49.968;9.062;2023-01-15T13:22:53;5.10;99.90
22114;DHT22;11223;49.968;9.062;2023-01-15T13:28:41;5.30;99.90
22114;DHT22;11223;49.968;9.062;2023-01-15T13:36:54;5.70;99.90
22114;DHT22;11223;49.968;9.062;2023-01-15T13:39:24;5.80;99.90
22114;DHT22;11223;49.968;9.062;2023-01-15T13:41:52;5.80;99.90
22114;DHT22;11223;49.968;9.062;2023-01-15T13:44:47;5.90;99.90
22114;DHT22;11223;49.968;9.062;2023-01-15T13:47:19;5.90;99.90
22114;DHT22;11223;49.968;9.062;2023-01-15T13:49:54;5.90;99.90
22114;DHT22;11223;49.968;9.062;2023-01-15T13:52:26;6.00;99.90
22114;DHT22;11223;49.968;9.062;2023-01-15T13:54:52;6.00;99.90
22114;DHT22;11223;49.968;9.062;2023-01-15T13:57:32;6.00;99.90
22114;DHT22;11223;49.968;9.062;2023-01-15T14:00:03;5.90;99.90
22114;DHT22;11223;49.968;9.062;2023-01-15T14:02:31;5.90;99.90
22114;DHT22;11223;49.968;9.062;2023-01-15T14:05:16;5.90;99.90
22114;DHT22;11223;49.968;9.062;2023-01-15T14:07:44;6.00;99.90
22114;DHT22;11223;49.968;9.062;2023-01-15T14:26:35;6.10;99.90
22114;DHT22;11223;49.968;9.062;2023-01-15T14:29:22;6.10;99.90
22114;DHT22;11223;49.968;9.062;2023-01-15T14:34:33;5.90;99.90
22114;DHT22;11223;49.968;9.062;2023-01-15T14:39:50;5.80;99.90
22114;DHT22;11223;49.968;9.062;2023-01-15T14:47:51;5.70;99.90
22114;DHT22;11223;49.968;9.062;2023-01-15T14:52:53;5.50;99.90
22114;DHT22;11223;49.968;9.062;2023-01-15T14:55:20;5.40;99.90
22114;DHT22;11223;49.968;9.062;2023-01-15T14:57:58;5.30;99.90
22114;DHT22;11223;49.968;9.062;2023-01-15T15:00:31;5.20;99.90
22114;DHT22;11223;49.968;9.062;2023-01-15T15:02:58;5.20;99.90
22114;DHT22;11223;49.968;9.062;2023-01-15T15:05:27;5.20;99.90
22114;DHT22;11223;49.968;9.062;2023-01-15T15:07:54;5.20;99.90
22114;DHT22;11223;49.968;9.062;2023-01-15T15:18:32;5.30;99.90
22114;DHT22;11223;49.968;9.062;2023-01-15T15:21:19;5.40;99.90
22114;DHT22;11223;49.968;9.062;2023-01-15T15:23:51;5.40;99.90
22114;DHT22;11223;49.968;9.062;2023-01-15T15:26:28;5.40;99.90
22114;DHT22;11223;49.968;9.062;2023-01-15T15:31:26;5.30;99.90
22114;DHT22;11223;49.968;9.062;2023-01-15T15:33:54;5.30;99.90
22114;DHT22;11223;49.968;9.062;2023-01-15T15:36:24;5.30;99.90
22114;DHT22;11223;49.968;9.062;2023-01-15T15:38:57;5.30;99.90
22114;DHT22;11223;49.968;9.062;2023-01-15T15:41:26;5.20;99.90
22114;DHT22;11223;49.968;9.062;2023-01-15T15:47:34;5.20;99.90
22114;DHT22;11223;49.968;9.062;2023-01-15T15:50:24;5.20;99.90
22114;DHT22;11223;49.968;9.062;2023-01-15T15:52:50;5.10;99.90
22114;DHT22;11223;49.968;9.062;2023-01-15T15:55:17;5.00;99.90
22114;DHT22;11223;49.968;9.062;2023-01-15T15:57:46;5.00;99.90
22114;DHT22;11223;49.968;9.062;2023-01-15T16:00:19;4.90;99.90
22114;DHT22;11223;49.968;9.062;2023-01-15T16:02:45;4.90;99.90
22114;DHT22;11223;49.968;9.062;2023-01-15T16:07:43;4.80;99.90
22114;DHT22;11223;49.968;9.062;2023-01-15T16:10:13;4.90;99.90
22114;DHT22;11223;49.968;9.062;2023-01-15T16:12:44;4.90;99.90
22114;DHT22;11223;49.968;9.062;2023-01-15T16:15:19;4.90;99.90
22114;DHT22;11223;49.968;9.062;2023-01-15T16:17:46;4.90;99.90
22114;DHT22;11223;49.968;9.062;2023-01-15T16:20:15;4.90;99.90
22114;DHT22;11223;49.968;9.062;2023-01-15T16:22:49;5.00;99.90
22114;DHT22;11223;49.968;9.062;2023-01-15T16:25:37;5.00;99.90
22114;DHT22;11223;49.968;9.062;2023-01-15T16:28:04;5.00;99.90
22114;DHT22;11223;49.968;9.062;2023-01-15T16:30:31;5.00;99.90
22114;DHT22;11223;49.968;9.062;2023-01-15T16:33:06;5.00;99.90
22114;DHT22;11223;49.968;9.062;2023-01-15T16:35:35;5.00;99.90
22114;DHT22;11223;49.968;9.062;2023-01-15T16:38:02;5.00;99.90
22114;DHT22;11223;49.968;9.062;2023-01-15T16:40:31;5.00;99.90
22114;DHT22;11223;49.968;9.062;2023-01-15T16:43:03;5.00;99.90
22114;DHT22;11223;49.968;9.062;2023-01-15T16:45:30;5.00;99.90
22114;DHT22;11223;49.968;9.062;2023-01-15T16:48:25;5.00;99.90
22114;DHT22;11223;49.968;9.062;2023-01-15T16:50:57;5.00;99.90
22114;DHT22;11223;49.968;9.062;2023-01-15T16:53:36;5.00;99.90
22114;DHT22;11223;49.968;9.062;2023-01-15T16:56:03;5.00;99.90
22114;DHT22;11223;49.968;9.062;2023-01-15T16:58:35;4.90;99.90
22114;DHT22;11223;49.968;9.062;2023-01-15T17:03:47;4.80;99.90
22114;DHT22;11223;49.968;9.062;2023-01-15T17:06:13;4.80;99.90
22114;DHT22;11223;49.968;9.062;2023-01-15T17:08:45;4.70;99.90
22114;DHT22;11223;49.968;9.062;2023-01-15T17:11:27;4.70;99.90
22114;DHT22;11223;49.968;9.062;2023-01-15T17:14:19;4.70;99.90
22114;DHT22;11223;49.968;9.062;2023-01-15T17:16:45;4.60;99.90
22114;DHT22;11223;49.968;9.062;2023-01-15T17:19:11;4.60;99.90
22114;DHT22;11223;49.968;9.062;2023-01-15T17:21:37;4.50;99.90
22114;DHT22;11223;49.968;9.062;2023-01-15T17:24:07;4.50;99.90
22114;DHT22;11223;49.968;9.062;2023-01-15T17:26:34;4.40;99.90
22114;DHT22;11223;49.968;9.062;2023-01-15T17:28:59;4.30;99.90
22114;DHT22;11223;49.968;9.062;2023-01-15T17:31:31;4.20;99.90
22114;DHT22;11223;49.968;9.062;2023-01-15T17:34:02;4.20;99.90
22114;DHT22;11223;49.968;9.062;2023-01-15T17:36:28;4.20;99.90
22114;DHT22;11223;49.968;9.062;2023-01-15T17:38:55;4.10;99.90
22114;DHT22;11223;49.968;9.062;2023-01-15T17:41:21;4.10;99.90
22114;DHT22;11223;49.968;9.062;2023-01-15T17:43:48;4.10;99.90
22114;DHT22;11223;49.968;9.062;2023-01-15T17:46:14;4.10;99.90
22114;DHT22;11223;49.968;9.062;2023-01-15T17:48:41;4.10;99.90
22114;DHT22;11223;49.968;9.062;2023-01-15T17:51:11;4.00;99.90
22114;DHT22;11223;49.968;9.062;2023-01-15T17:53:37;4.00;99.90
22114;DHT22;11223;49.968;9.062;2023-01-15T17:56:03;3.90;99.90
22114;DHT22;11223;49.968;9.062;2023-01-15T17:58:48;3.90;99.90
22114;DHT22;11223;49.968;9.062;2023-01-15T18:01:36;3.90;99.90
22114;DHT22;11223;49.968;9.062;2023-01-15T18:04:27;3.90;99.90
22114;DHT22;11223;49.968;9.062;2023-01-15T18:07:14;4.00;99.90